RYR42BT EGGP-EIDW
Flight info
| Callsign | RYR42BT |
|---|---|
| Flight time | N/A |
| Altitude | 24000 |
| Route | WAL L10 PENIL L28 LELDO M145 BAGSO BAGSO3R |
| Aircraft | B738/M-SDE2E3FGHIRWXY/LB1 |
Departure
| Time | 2026-04-29 15:28 |
|---|---|
| Airport | Liverpool John Lennon Airport (EGGP) |
Arrival
| Time | N/A |
|---|---|
| Airport | Dublin Airport (EIDW) |
| Time | Latitude | Longitude | Altitude | Speed | Heading |
|---|---|---|---|---|---|
| 2026-04-29 15:14 | 53.33655 | -2.85654 | 88 ft | 0 kts | 356° |
| 2026-04-29 15:20 | 53.33634 | -2.85649 | 87 ft | 10 kts | 335° |
| 2026-04-29 15:20 | 53.33615 | -2.85622 | 85 ft | 10 kts | 293° |
| 2026-04-29 15:21 | 53.33611 | -2.85589 | 83 ft | 6 kts | 265° |
| 2026-04-29 15:24 | 53.33610 | -2.85608 | 84 ft | 6 kts | 265° |
| 2026-04-29 15:24 | 53.33605 | -2.85692 | 84 ft | 8 kts | 265° |
| 2026-04-29 15:24 | 53.33601 | -2.85777 | 87 ft | 7 kts | 265° |
| 2026-04-29 15:24 | 53.33597 | -2.85855 | 88 ft | 7 kts | 265° |
| 2026-04-29 15:25 | 53.33575 | -2.85924 | 88 ft | 7 kts | 212° |
| 2026-04-29 15:25 | 53.33527 | -2.85931 | 84 ft | 7 kts | 177° |
| 2026-04-29 15:25 | 53.33488 | -2.85968 | 86 ft | 7 kts | 247° |
| 2026-04-29 15:25 | 53.33480 | -2.86046 | 86 ft | 7 kts | 263° |
| 2026-04-29 15:26 | 53.33476 | -2.86128 | 83 ft | 7 kts | 267° |
| 2026-04-29 15:26 | 53.33473 | -2.86209 | 83 ft | 7 kts | 267° |
| 2026-04-29 15:26 | 53.33469 | -2.86289 | 85 ft | 7 kts | 263° |
| 2026-04-29 15:26 | 53.33464 | -2.86386 | 83 ft | 10 kts | 265° |
| 2026-04-29 15:27 | 53.33456 | -2.86513 | 81 ft | 13 kts | 262° |
| 2026-04-29 15:27 | 53.33436 | -2.86674 | 73 ft | 15 kts | 236° |
| 2026-04-29 15:27 | 53.33348 | -2.86716 | 72 ft | 14 kts | 159° |
| 2026-04-29 15:27 | 53.33290 | -2.86610 | 74 ft | 12 kts | 100° |
| 2026-04-29 15:28 | 53.33293 | -2.86547 | 73 ft | 26 kts | 84° |
| 2026-04-29 15:28 | 53.33313 | -2.86104 | 73 ft | 88 kts | 86° |
| 2026-04-29 15:28 | 53.33407 | -2.83977 | 408 ft | 167 kts | 86° |
| 2026-04-29 15:28 | 53.33486 | -2.82024 | 1403 ft | 181 kts | 87° |
| 2026-04-29 15:29 | 53.33561 | -2.79895 | 2304 ft | 192 kts | 86° |
| 2026-04-29 15:29 | 53.35389 | -2.76532 | 3545 ft | 239 kts | 12° |
| 2026-04-29 15:30 | 53.38353 | -2.79333 | 4073 ft | 293 kts | 296° |
| 2026-04-29 15:30 | 53.38630 | -2.82456 | 5472 ft | 224 kts | 255° |
| 2026-04-29 15:30 | 53.38268 | -2.85302 | 5816 ft | 274 kts | 255° |
| 2026-04-29 15:30 | 53.38187 | -2.88527 | 6281 ft | 296 kts | 272° |
| 2026-04-29 15:31 | 53.38374 | -2.91956 | 7238 ft | 292 kts | 272° |
| 2026-04-29 15:31 | 53.38531 | -2.95387 | 8046 ft | 300 kts | 269° |
| 2026-04-29 15:31 | 53.38600 | -2.98872 | 8798 ft | 307 kts | 268° |
| 2026-04-29 15:31 | 53.38713 | -3.02330 | 9637 ft | 310 kts | 271° |
| 2026-04-29 15:32 | 53.38873 | -3.05950 | 10481 ft | 313 kts | 270° |
| 2026-04-29 15:32 | 53.39023 | -3.09688 | 10892 ft | 333 kts | 270° |
| 2026-04-29 15:32 | 53.39435 | -3.13649 | 11036 ft | 362 kts | 291° |
| 2026-04-29 15:32 | 53.40759 | -3.17319 | 11510 ft | 374 kts | 305° |
| 2026-04-29 15:33 | 53.42297 | -3.20902 | 12160 ft | 381 kts | 306° |
| 2026-04-29 15:33 | 53.43862 | -3.24527 | 12901 ft | 386 kts | 306° |
| 2026-04-29 15:33 | 53.45424 | -3.28157 | 13621 ft | 391 kts | 305° |
| 2026-04-29 15:33 | 53.47025 | -3.31896 | 14295 ft | 397 kts | 305° |
| 2026-04-29 15:34 | 53.48639 | -3.35689 | 14961 ft | 401 kts | 306° |
| 2026-04-29 15:34 | 53.50264 | -3.39519 | 15641 ft | 405 kts | 305° |
| 2026-04-29 15:34 | 53.51902 | -3.43390 | 16298 ft | 409 kts | 305° |
| 2026-04-29 15:34 | 53.53555 | -3.47305 | 16943 ft | 413 kts | 306° |
| 2026-04-29 15:35 | 53.55232 | -3.51263 | 17601 ft | 417 kts | 306° |
| 2026-04-29 15:35 | 53.56924 | -3.55257 | 18210 ft | 421 kts | 307° |
| 2026-04-29 15:35 | 53.58634 | -3.59297 | 18811 ft | 426 kts | 307° |
| 2026-04-29 15:35 | 53.60345 | -3.63389 | 19391 ft | 429 kts | 306° |
| 2026-04-29 15:36 | 53.61958 | -3.67676 | 19809 ft | 438 kts | 296° |
| 2026-04-29 15:36 | 53.63168 | -3.72398 | 20308 ft | 442 kts | 289° |
| 2026-04-29 15:36 | 53.64257 | -3.77253 | 20894 ft | 443 kts | 289° |
| 2026-04-29 15:36 | 53.65358 | -3.82120 | 21479 ft | 446 kts | 290° |
| 2026-04-29 15:37 | 53.66499 | -3.87000 | 22007 ft | 449 kts | 290° |
| 2026-04-29 15:37 | 53.67663 | -3.91901 | 22386 ft | 453 kts | 291° |
| 2026-04-29 15:37 | 53.68830 | -3.96784 | 22013 ft | 446 kts | 291° |
| 2026-04-29 15:37 | 53.69989 | -4.01558 | 20694 ft | 462 kts | 291° |
| 2026-04-29 15:38 | 53.71182 | -4.06650 | 19387 ft | 474 kts | 288° |
| 2026-04-29 15:38 | 53.71920 | -4.12134 | 18470 ft | 473 kts | 273° |
| 2026-04-29 15:38 | 53.72121 | -4.17346 | 19592 ft | 421 kts | 267° |
| 2026-04-29 15:38 | 53.71811 | -4.22098 | 19494 ft | 404 kts | 252° |
| 2026-04-29 15:39 | 53.70999 | -4.26727 | 18159 ft | 422 kts | 244° |
| 2026-04-29 15:39 | 53.69920 | -4.31286 | 17910 ft | 410 kts | 242° |
| 2026-04-29 15:39 | 53.68849 | -4.35615 | 18087 ft | 391 kts | 241° |
| 2026-04-29 15:39 | 53.67812 | -4.39832 | 18311 ft | 389 kts | 241° |
| 2026-04-29 15:40 | 53.66767 | -4.44076 | 18555 ft | 395 kts | 241° |
| 2026-04-29 15:40 | 53.65976 | -4.48569 | 18502 ft | 412 kts | 260° |
| 2026-04-29 15:40 | 53.66225 | -4.53407 | 18285 ft | 414 kts | 288° |
| 2026-04-29 15:40 | 53.67558 | -4.57585 | 18578 ft | 404 kts | 308° |
| 2026-04-29 15:41 | 53.69271 | -4.61382 | 18717 ft | 411 kts | 305° |
| 2026-04-29 15:41 | 53.70738 | -4.65546 | 18688 ft | 414 kts | 296° |
| 2026-04-29 15:41 | 53.71853 | -4.70005 | 18655 ft | 412 kts | 288° |
| 2026-04-29 15:41 | 53.72750 | -4.74562 | 18363 ft | 407 kts | 285° |
| 2026-04-29 15:42 | 53.73581 | -4.79122 | 17957 ft | 405 kts | 285° |
| 2026-04-29 15:42 | 53.74299 | -4.83702 | 17455 ft | 402 kts | 278° |
| 2026-04-29 15:42 | 53.74575 | -4.88312 | 17001 ft | 398 kts | 269° |
| 2026-04-29 15:42 | 53.74685 | -4.92960 | 16593 ft | 394 kts | 268° |
| 2026-04-29 15:43 | 53.74791 | -4.97565 | 16198 ft | 391 kts | 268° |
| 2026-04-29 15:43 | 53.74913 | -5.01988 | 15819 ft | 388 kts | 269° |
| 2026-04-29 15:43 | 53.75050 | -5.06523 | 15436 ft | 385 kts | 269° |
| 2026-04-29 15:43 | 53.75180 | -5.10981 | 15307 ft | 373 kts | 267° |